sensor_id;sensor_type;location;lat;lon;timestamp;temperature;humidity
76897;SHT30;65856;52.178;21.176;2024-03-17T00:01:45;8.49;75.60
76897;SHT30;65856;52.178;21.176;2024-03-17T00:04:10;8.46;75.38
76897;SHT30;65856;52.178;21.176;2024-03-17T00:06:35;8.42;75.14
76897;SHT30;65856;52.178;21.176;2024-03-17T00:09:01;8.40;74.79
76897;SHT30;65856;52.178;21.176;2024-03-17T00:11:31;8.34;74.26
76897;SHT30;65856;52.178;21.176;2024-03-17T00:14:00;8.30;73.94
76897;SHT30;65856;52.178;21.176;2024-03-17T00:16:26;8.25;73.63
76897;SHT30;65856;52.178;21.176;2024-03-17T00:18:52;8.24;73.65
76897;SHT30;65856;52.178;21.176;2024-03-17T00:21:18;8.21;72.92
76897;SHT30;65856;52.178;21.176;2024-03-17T00:23:45;8.17;72.95
76897;SHT30;65856;52.178;21.176;2024-03-17T00:26:14;8.11;72.65
76897;SHT30;65856;52.178;21.176;2024-03-17T00:28:40;8.07;72.79
76897;SHT30;65856;52.178;21.176;2024-03-17T00:31:05;8.06;72.68
76897;SHT30;65856;52.178;21.176;2024-03-17T00:33:31;8.03;72.59
76897;SHT30;65856;52.178;21.176;2024-03-17T00:35:59;8.01;72.50
76897;SHT30;65856;52.178;21.176;2024-03-17T00:38:24;8.00;72.45
76897;SHT30;65856;52.178;21.176;2024-03-17T00:40:50;8.00;72.54
76897;SHT30;65856;52.178;21.176;2024-03-17T00:43:15;8.01;72.37
76897;SHT30;65856;52.178;21.176;2024-03-17T00:45:42;8.01;72.25
76897;SHT30;65856;52.178;21.176;2024-03-17T00:48:07;7.96;71.53
76897;SHT30;65856;52.178;21.176;2024-03-17T00:50:32;7.94;71.20
76897;SHT30;65856;52.178;21.176;2024-03-17T00:52:58;7.90;70.67
76897;SHT30;65856;52.178;21.176;2024-03-17T00:55:25;7.86;69.45
76897;SHT30;65856;52.178;21.176;2024-03-17T00:57:50;7.82;69.02
76897;SHT30;65856;52.178;21.176;2024-03-17T01:00:17;7.79;69.22
76897;SHT30;65856;52.178;21.176;2024-03-17T01:02:43;7.78;69.11
76897;SHT30;65856;52.178;21.176;2024-03-17T01:05:08;7.77;68.76
76897;SHT30;65856;52.178;21.176;2024-03-17T01:07:33;7.74;67.99
76897;SHT30;65856;52.178;21.176;2024-03-17T01:09:59;7.70;68.06
76897;SHT30;65856;52.178;21.176;2024-03-17T01:12:25;7.65;67.10
76897;SHT30;65856;52.178;21.176;2024-03-17T01:14:51;7.62;67.07
76897;SHT30;65856;52.178;21.176;2024-03-17T01:17:16;7.61;67.05
76897;SHT30;65856;52.178;21.176;2024-03-17T01:19:44;7.60;67.16
76897;SHT30;65856;52.178;21.176;2024-03-17T01:22:09;7.59;67.12
76897;SHT30;65856;52.178;21.176;2024-03-17T01:24:35;7.58;67.00
76897;SHT30;65856;52.178;21.176;2024-03-17T01:27:00;7.57;67.27
76897;SHT30;65856;52.178;21.176;2024-03-17T01:29:26;7.54;67.20
76897;SHT30;65856;52.178;21.176;2024-03-17T01:31:52;7.51;67.08
76897;SHT30;65856;52.178;21.176;2024-03-17T01:34:20;7.50;66.91
76897;SHT30;65856;52.178;21.176;2024-03-17T01:36:46;7.48;66.94
76897;SHT30;65856;52.178;21.176;2024-03-17T01:39:12;7.46;66.39
76897;SHT30;65856;52.178;21.176;2024-03-17T01:41:38;7.43;66.42
76897;SHT30;65856;52.178;21.176;2024-03-17T01:44:03;7.40;66.57
76897;SHT30;65856;52.178;21.176;2024-03-17T01:46:29;7.38;66.67
76897;SHT30;65856;52.178;21.176;2024-03-17T01:48:54;7.35;66.89
76897;SHT30;65856;52.178;21.176;2024-03-17T01:51:20;7.35;66.94
76897;SHT30;65856;52.178;21.176;2024-03-17T01:53:47;7.33;66.83
76897;SHT30;65856;52.178;21.176;2024-03-17T01:56:13;7.30;66.63
76897;SHT30;65856;52.178;21.176;2024-03-17T01:58:42;7.27;66.60
76897;SHT30;65856;52.178;21.176;2024-03-17T02:01:09;7.23;66.29
76897;SHT30;65856;52.178;21.176;2024-03-17T02:03:35;7.19;66.40
76897;SHT30;65856;52.178;21.176;2024-03-17T02:06:01;7.18;66.64
76897;SHT30;65856;52.178;21.176;2024-03-17T02:08:26;7.13;66.37
76897;SHT30;65856;52.178;21.176;2024-03-17T02:10:52;7.09;66.72
76897;SHT30;65856;52.178;21.176;2024-03-17T02:13:19;7.05;66.48
76897;SHT30;65856;52.178;21.176;2024-03-17T02:15:46;7.00;66.62
76897;SHT30;65856;52.178;21.176;2024-03-17T02:18:12;6.99;66.80
76897;SHT30;65856;52.178;21.176;2024-03-17T02:20:38;6.98;66.64
76897;SHT30;65856;52.178;21.176;2024-03-17T02:23:24;6.95;66.56
76897;SHT30;65856;52.178;21.176;2024-03-17T02:25:51;6.94;66.79
76897;SHT30;65856;52.178;21.176;2024-03-17T02:28:18;6.95;66.71
76897;SHT30;65856;52.178;21.176;2024-03-17T02:30:44;6.94;66.87
76897;SHT30;65856;52.178;21.176;2024-03-17T02:33:09;6.91;66.67
76897;SHT30;65856;52.178;21.176;2024-03-17T02:35:35;6.88;66.47
76897;SHT30;65856;52.178;21.176;2024-03-17T02:38:00;6.84;66.43
76897;SHT30;65856;52.178;21.176;2024-03-17T02:40:25;6.82;66.64
76897;SHT30;65856;52.178;21.176;2024-03-17T02:42:51;6.83;66.32
76897;SHT30;65856;52.178;21.176;2024-03-17T02:45:16;6.79;66.14
76897;SHT30;65856;52.178;21.176;2024-03-17T02:47:42;6.76;66.00
76897;SHT30;65856;52.178;21.176;2024-03-17T02:50:07;6.74;66.16
76897;SHT30;65856;52.178;21.176;2024-03-17T02:52:36;6.76;66.30
76897;SHT30;65856;52.178;21.176;2024-03-17T02:55:02;6.75;66.07
76897;SHT30;65856;52.178;21.176;2024-03-17T02:57:28;6.72;66.03
76897;SHT30;65856;52.178;21.176;2024-03-17T02:59:55;6.72;66.16
76897;SHT30;65856;52.178;21.176;2024-03-17T03:02:21;6.70;66.26
76897;SHT30;65856;52.178;21.176;2024-03-17T03:04:47;6.67;66.09
76897;SHT30;65856;52.178;21.176;2024-03-17T03:07:12;6.64;66.22
76897;SHT30;65856;52.178;21.176;2024-03-17T03:09:38;6.61;66.37
76897;SHT30;65856;52.178;21.176;2024-03-17T03:12:04;6.60;66.55
76897;SHT30;65856;52.178;21.176;2024-03-17T03:14:30;6.57;66.46
76897;SHT30;65856;52.178;21.176;2024-03-17T03:16:56;6.53;66.34
76897;SHT30;65856;52.178;21.176;2024-03-17T03:19:23;6.49;66.22
76897;SHT30;65856;52.178;21.176;2024-03-17T03:21:49;6.45;66.36
76897;SHT30;65856;52.178;21.176;2024-03-17T03:24:15;6.48;66.43
76897;SHT30;65856;52.178;21.176;2024-03-17T03:26:40;6.47;66.40
76897;SHT30;65856;52.178;21.176;2024-03-17T03:29:06;6.46;66.39
76897;SHT30;65856;52.178;21.176;2024-03-17T03:31:32;6.47;66.42
76897;SHT30;65856;52.178;21.176;2024-03-17T03:33:58;6.49;66.59
76897;SHT30;65856;52.178;21.176;2024-03-17T03:36:26;6.51;66.74
76897;SHT30;65856;52.178;21.176;2024-03-17T03:38:52;6.54;66.85
76897;SHT30;65856;52.178;21.176;2024-03-17T03:41:18;6.55;66.75
76897;SHT30;65856;52.178;21.176;2024-03-17T03:43:44;6.56;66.79
76897;SHT30;65856;52.178;21.176;2024-03-17T03:46:13;6.56;66.82
76897;SHT30;65856;52.178;21.176;2024-03-17T03:48:38;6.56;66.99
76897;SHT30;65856;52.178;21.176;2024-03-17T03:51:04;6.56;67.12
76897;SHT30;65856;52.178;21.176;2024-03-17T03:53:31;6.56;67.13
76897;SHT30;65856;52.178;21.176;2024-03-17T03:55:58;6.55;67.15
76897;SHT30;65856;52.178;21.176;2024-03-17T03:58:29;6.52;67.37
76897;SHT30;65856;52.178;21.176;2024-03-17T04:00:55;6.53;67.36
76897;SHT30;65856;52.178;21.176;2024-03-17T04:03:22;6.54;67.52
76897;SHT30;65856;52.178;21.176;2024-03-17T04:05:48;6.53;67.71
76897;SHT30;65856;52.178;21.176;2024-03-17T04:08:13;6.55;67.96
76897;SHT30;65856;52.178;21.176;2024-03-17T04:10:39;6.56;67.90
76897;SHT30;65856;52.178;21.176;2024-03-17T04:13:04;6.58;67.94
76897;SHT30;65856;52.178;21.176;2024-03-17T04:15:30;6.61;68.13
76897;SHT30;65856;52.178;21.176;2024-03-17T04:17:55;6.64;68.09
76897;SHT30;65856;52.178;21.176;2024-03-17T04:20:20;6.64;68.06
76897;SHT30;65856;52.178;21.176;2024-03-17T04:22:46;6.64;68.19
76897;SHT30;65856;52.178;21.176;2024-03-17T04:25:13;6.62;68.23
76897;SHT30;65856;52.178;21.176;2024-03-17T04:27:39;6.61;68.26
76897;SHT30;65856;52.178;21.176;2024-03-17T04:30:05;6.58;68.03
76897;SHT30;65856;52.178;21.176;2024-03-17T04:32:32;6.54;68.14
76897;SHT30;65856;52.178;21.176;2024-03-17T04:34:58;6.55;68.26
76897;SHT30;65856;52.178;21.176;2024-03-17T04:37:24;6.54;67.95
76897;SHT30;65856;52.178;21.176;2024-03-17T04:39:50;6.52;67.89
76897;SHT30;65856;52.178;21.176;2024-03-17T04:42:16;6.54;67.78
76897;SHT30;65856;52.178;21.176;2024-03-17T04:44:43;6.54;67.74
76897;SHT30;65856;52.178;21.176;2024-03-17T04:47:09;6.53;67.62
76897;SHT30;65856;52.178;21.176;2024-03-17T04:49:36;6.56;67.42
76897;SHT30;65856;52.178;21.176;2024-03-17T04:52:02;6.56;67.12
76897;SHT30;65856;52.178;21.176;2024-03-17T04:54:28;6.56;66.80
76897;SHT30;65856;52.178;21.176;2024-03-17T04:56:55;6.53;66.50
76897;SHT30;65856;52.178;21.176;2024-03-17T04:59:20;6.54;66.61
76897;SHT30;65856;52.178;21.176;2024-03-17T05:01:46;6.54;66.33
76897;SHT30;65856;52.178;21.176;2024-03-17T05:04:11;6.53;66.06
76897;SHT30;65856;52.178;21.176;2024-03-17T05:06:37;6.49;65.97
76897;SHT30;65856;52.178;21.176;2024-03-17T05:09:02;6.48;66.04
76897;SHT30;65856;52.178;21.176;2024-03-17T05:11:30;6.49;65.76
76897;SHT30;65856;52.178;21.176;2024-03-17T05:13:56;6.52;65.86
76897;SHT30;65856;52.178;21.176;2024-03-17T05:16:22;6.54;65.86
76897;SHT30;65856;52.178;21.176;2024-03-17T05:18:49;6.53;65.61
76897;SHT30;65856;52.178;21.176;2024-03-17T05:21:14;6.55;65.79
76897;SHT30;65856;52.178;21.176;2024-03-17T05:23:40;6.58;65.91
76897;SHT30;65856;52.178;21.176;2024-03-17T05:26:05;6.59;65.93
76897;SHT30;65856;52.178;21.176;2024-03-17T05:28:31;6.58;65.98
76897;SHT30;65856;52.178;21.176;2024-03-17T05:30:57;6.60;66.11
76897;SHT30;65856;52.178;21.176;2024-03-17T05:33:24;6.60;66.09
76897;SHT30;65856;52.178;21.176;2024-03-17T05:35:54;6.62;66.28
76897;SHT30;65856;52.178;21.176;2024-03-17T05:38:27;6.68;66.46
76897;SHT30;65856;52.178;21.176;2024-03-17T05:40:58;6.72;66.63
76897;SHT30;65856;52.178;21.176;2024-03-17T05:43:26;6.75;66.93
76897;SHT30;65856;52.178;21.176;2024-03-17T05:45:58;6.78;67.12
76897;SHT30;65856;52.178;21.176;2024-03-17T05:48:28;6.81;67.12
76897;SHT30;65856;52.178;21.176;2024-03-17T05:50:57;6.85;67.34
76897;SHT30;65856;52.178;21.176;2024-03-17T05:53:23;6.87;67.52
76897;SHT30;65856;52.178;21.176;2024-03-17T05:55:49;6.89;67.69
76897;SHT30;65856;52.178;21.176;2024-03-17T05:58:15;6.92;67.76
76897;SHT30;65856;52.178;21.176;2024-03-17T06:00:41;6.94;67.84
76897;SHT30;65856;52.178;21.176;2024-03-17T06:03:07;6.98;67.92
76897;SHT30;65856;52.178;21.176;2024-03-17T06:05:34;7.04;68.00
76897;SHT30;65856;52.178;21.176;2024-03-17T06:08:01;7.07;68.13
76897;SHT30;65856;52.178;21.176;2024-03-17T06:10:29;7.12;67.91
76897;SHT30;65856;52.178;21.176;2024-03-17T06:12:56;7.22;67.42
76897;SHT30;65856;52.178;21.176;2024-03-17T06:15:23;7.31;67.10
76897;SHT30;65856;52.178;21.176;2024-03-17T06:17:49;7.45;66.77
76897;SHT30;65856;52.178;21.176;2024-03-17T06:20:21;7.58;66.70
76897;SHT30;65856;52.178;21.176;2024-03-17T06:22:51;7.67;66.50
76897;SHT30;65856;52.178;21.176;2024-03-17T06:25:20;7.71;65.67
76897;SHT30;65856;52.178;21.176;2024-03-17T06:27:49;7.71;65.69
76897;SHT30;65856;52.178;21.176;2024-03-17T06:30:15;7.75;65.60
76897;SHT30;65856;52.178;21.176;2024-03-17T06:32:41;7.81;65.02
76897;SHT30;65856;52.178;21.176;2024-03-17T06:35:08;7.80;64.43
76897;SHT30;65856;52.178;21.176;2024-03-17T06:37:34;7.80;64.19
76897;SHT30;65856;52.178;21.176;2024-03-17T06:40:00;7.83;63.99
76897;SHT30;65856;52.178;21.176;2024-03-17T06:42:28;7.87;64.12
76897;SHT30;65856;52.178;21.176;2024-03-17T06:44:55;7.91;64.23
76897;SHT30;65856;52.178;21.176;2024-03-17T06:47:20;7.97;63.72
76897;SHT30;65856;52.178;21.176;2024-03-17T06:49:45;7.99;63.34
76897;SHT30;65856;52.178;21.176;2024-03-17T06:52:11;8.01;63.01
76897;SHT30;65856;52.178;21.176;2024-03-17T06:54:36;8.00;62.74
76897;SHT30;65856;52.178;21.176;2024-03-17T06:57:01;8.00;62.66
76897;SHT30;65856;52.178;21.176;2024-03-17T06:59:27;8.02;62.49
76897;SHT30;65856;52.178;21.176;2024-03-17T07:01:52;8.07;62.57
76897;SHT30;65856;52.178;21.176;2024-03-17T07:04:18;8.15;62.63
76897;SHT30;65856;52.178;21.176;2024-03-17T07:06:43;8.18;62.57
76897;SHT30;65856;52.178;21.176;2024-03-17T07:09:09;8.21;62.51
76897;SHT30;65856;52.178;21.176;2024-03-17T07:11:34;8.15;61.83
76897;SHT30;65856;52.178;21.176;2024-03-17T07:14:00;8.06;61.75
76897;SHT30;65856;52.178;21.176;2024-03-17T07:16:26;8.04;62.37
76897;SHT30;65856;52.178;21.176;2024-03-17T07:18:51;7.99;61.79
76897;SHT30;65856;52.178;21.176;2024-03-17T07:21:21;7.97;62.18
76897;SHT30;65856;52.178;21.176;2024-03-17T07:23:47;8.01;62.45
76897;SHT30;65856;52.178;21.176;2024-03-17T07:26:12;8.03;62.40
76897;SHT30;65856;52.178;21.176;2024-03-17T07:28:39;8.02;62.19
76897;SHT30;65856;52.178;21.176;2024-03-17T07:31:05;7.98;61.69
76897;SHT30;65856;52.178;21.176;2024-03-17T07:33:33;7.89;62.02
76897;SHT30;65856;52.178;21.176;2024-03-17T07:35:59;7.90;62.03
76897;SHT30;65856;52.178;21.176;2024-03-17T07:38:26;7.97;62.22
76897;SHT30;65856;52.178;21.176;2024-03-17T07:40:59;7.99;62.23
76897;SHT30;65856;52.178;21.176;2024-03-17T07:43:36;7.99;62.61
76897;SHT30;65856;52.178;21.176;2024-03-17T07:46:05;8.04;62.38
76897;SHT30;65856;52.178;21.176;2024-03-17T07:48:39;8.04;62.19
76897;SHT30;65856;52.178;21.176;2024-03-17T07:51:07;8.03;62.34
76897;SHT30;65856;52.178;21.176;2024-03-17T07:53:36;8.02;62.45
76897;SHT30;65856;52.178;21.176;2024-03-17T07:56:04;8.04;62.35
76897;SHT30;65856;52.178;21.176;2024-03-17T07:58:32;8.04;62.39
76897;SHT30;65856;52.178;21.176;2024-03-17T08:03:27;7.98;62.27
76897;SHT30;65856;52.178;21.176;2024-03-17T08:05:58;7.98;62.67
76897;SHT30;65856;52.178;21.176;2024-03-17T08:08:24;8.01;62.50
76897;SHT30;65856;52.178;21.176;2024-03-17T08:10:50;7.99;62.45
76897;SHT30;65856;52.178;21.176;2024-03-17T08:13:16;7.93;62.10
76897;SHT30;65856;52.178;21.176;2024-03-17T08:15:42;7.87;62.30
76897;SHT30;65856;52.178;21.176;2024-03-17T08:18:09;7.83;62.51
76897;SHT30;65856;52.178;21.176;2024-03-17T08:23:04;7.90;63.06
76897;SHT30;65856;52.178;21.176;2024-03-17T08:25:33;7.94;62.77
76897;SHT30;65856;52.178;21.176;2024-03-17T08:28:00;7.93;62.54
76897;SHT30;65856;52.178;21.176;2024-03-17T08:30:26;7.95;62.86
76897;SHT30;65856;52.178;21.176;2024-03-17T08:32:52;8.01;62.92
76897;SHT30;65856;52.178;21.176;2024-03-17T08:35:17;8.05;63.06
76897;SHT30;65856;52.178;21.176;2024-03-17T08:37:42;8.06;62.98
76897;SHT30;65856;52.178;21.176;2024-03-17T08:40:09;8.08;63.23
76897;SHT30;65856;52.178;21.176;2024-03-17T08:42:35;8.09;63.03
76897;SHT30;65856;52.178;21.176;2024-03-17T08:45:01;8.11;63.34
76897;SHT30;65856;52.178;21.176;2024-03-17T08:47:27;8.14;63.02
76897;SHT30;65856;52.178;21.176;2024-03-17T08:49:53;8.12;63.27
76897;SHT30;65856;52.178;21.176;2024-03-17T08:52:19;8.13;63.14
76897;SHT30;65856;52.178;21.176;2024-03-17T08:54:46;8.13;63.24
76897;SHT30;65856;52.178;21.176;2024-03-17T08:57:12;8.18;63.29
76897;SHT30;65856;52.178;21.176;2024-03-17T08:59:38;8.21;63.04
76897;SHT30;65856;52.178;21.176;2024-03-17T09:02:04;8.18;62.96
76897;SHT30;65856;52.178;21.176;2024-03-17T09:04:29;8.15;62.73
76897;SHT30;65856;52.178;21.176;2024-03-17T09:06:56;8.09;63.08
76897;SHT30;65856;52.178;21.176;2024-03-17T09:09:22;8.08;62.92
76897;SHT30;65856;52.178;21.176;2024-03-17T09:11:47;8.04;63.01
76897;SHT30;65856;52.178;21.176;2024-03-17T09:14:13;8.07;63.33
76897;SHT30;65856;52.178;21.176;2024-03-17T09:16:38;8.09;63.39
76897;SHT30;65856;52.178;21.176;2024-03-17T09:19:03;8.15;63.53
76897;SHT30;65856;52.178;21.176;2024-03-17T09:21:29;8.19;63.56
76897;SHT30;65856;52.178;21.176;2024-03-17T09:23:54;8.23;63.41
76897;SHT30;65856;52.178;21.176;2024-03-17T09:26:20;8.21;63.29
76897;SHT30;65856;52.178;21.176;2024-03-17T09:28:45;8.13;63.25
76897;SHT30;65856;52.178;21.176;2024-03-17T09:31:11;8.07;63.32
76897;SHT30;65856;52.178;21.176;2024-03-17T09:33:37;8.00;63.21
76897;SHT30;65856;52.178;21.176;2024-03-17T09:36:06;7.92;63.44
76897;SHT30;65856;52.178;21.176;2024-03-17T09:38:36;7.84;63.91
76897;SHT30;65856;52.178;21.176;2024-03-17T09:41:02;7.76;64.82
76897;SHT30;65856;52.178;21.176;2024-03-17T09:43:28;7.71;66.26
76897;SHT30;65856;52.178;21.176;2024-03-17T09:45:56;7.61;66.10
76897;SHT30;65856;52.178;21.176;2024-03-17T09:48:23;7.49;66.13
76897;SHT30;65856;52.178;21.176;2024-03-17T09:50:51;7.46;66.31
76897;SHT30;65856;52.178;21.176;2024-03-17T09:53:22;7.45;66.36
76897;SHT30;65856;52.178;21.176;2024-03-17T09:55:52;7.45;66.16
76897;SHT30;65856;52.178;21.176;2024-03-17T09:58:49;7.50;66.37
76897;SHT30;65856;52.178;21.176;2024-03-17T10:01:17;7.56;66.49
76897;SHT30;65856;52.178;21.176;2024-03-17T10:03:43;7.64;66.57
76897;SHT30;65856;52.178;21.176;2024-03-17T10:06:14;7.75;67.24
76897;SHT30;65856;52.178;21.176;2024-03-17T10:11:16;7.95;66.31
76897;SHT30;65856;52.178;21.176;2024-03-17T10:13:45;8.02;65.84
76897;SHT30;65856;52.178;21.176;2024-03-17T10:16:24;8.04;64.81
76897;SHT30;65856;52.178;21.176;2024-03-17T10:19:13;8.05;64.65
76897;SHT30;65856;52.178;21.176;2024-03-17T10:21:41;8.07;64.19
76897;SHT30;65856;52.178;21.176;2024-03-17T10:26:48;8.04;63.80
76897;SHT30;65856;52.178;21.176;2024-03-17T10:29:25;8.06;63.67
76897;SHT30;65856;52.178;21.176;2024-03-17T10:32:03;8.05;64.05
76897;SHT30;65856;52.178;21.176;2024-03-17T10:34:31;8.08;63.98
76897;SHT30;65856;52.178;21.176;2024-03-17T10:39:39;8.03;63.57
76897;SHT30;65856;52.178;21.176;2024-03-17T10:42:07;7.99;63.51
76897;SHT30;65856;52.178;21.176;2024-03-17T10:44:34;7.98;63.57
76897;SHT30;65856;52.178;21.176;2024-03-17T10:47:04;7.95;63.75
76897;SHT30;65856;52.178;21.176;2024-03-17T10:49:40;7.92;63.88
76897;SHT30;65856;52.178;21.176;2024-03-17T10:52:16;7.88;63.93
76897;SHT30;65856;52.178;21.176;2024-03-17T10:54:46;7.85;64.11
76897;SHT30;65856;52.178;21.176;2024-03-17T11:00:02;7.80;64.42
76897;SHT30;65856;52.178;21.176;2024-03-17T11:02:32;7.80;64.59
76897;SHT30;65856;52.178;21.176;2024-03-17T11:05:01;7.79;64.68
76897;SHT30;65856;52.178;21.176;2024-03-17T11:07:29;7.82;64.95
76897;SHT30;65856;52.178;21.176;2024-03-17T11:10:02;7.86;64.66
76897;SHT30;65856;52.178;21.176;2024-03-17T11:17:54;7.91;64.10
76897;SHT30;65856;52.178;21.176;2024-03-17T11:20:42;7.89;63.88
76897;SHT30;65856;52.178;21.176;2024-03-17T11:23:25;7.87;63.88
76897;SHT30;65856;52.178;21.176;2024-03-17T11:25:53;7.85;63.72
76897;SHT30;65856;52.178;21.176;2024-03-17T11:31:31;7.83;64.05
76897;SHT30;65856;52.178;21.176;2024-03-17T11:37:01;7.81;64.20
76897;SHT30;65856;52.178;21.176;2024-03-17T11:42:22;7.85;64.24
76897;SHT30;65856;52.178;21.176;2024-03-17T11:44:57;7.87;63.89
76897;SHT30;65856;52.178;21.176;2024-03-17T11:47:32;7.87;63.54
76897;SHT30;65856;52.178;21.176;2024-03-17T11:50:01;7.89;63.49
76897;SHT30;65856;52.178;21.176;2024-03-17T11:52:29;7.85;63.08
76897;SHT30;65856;52.178;21.176;2024-03-17T11:54:54;7.80;64.22
76897;SHT30;65856;52.178;21.176;2024-03-17T11:57:21;7.76;64.71
76897;SHT30;65856;52.178;21.176;2024-03-17T11:59:51;7.74;64.77
76897;SHT30;65856;52.178;21.176;2024-03-17T12:02:20;7.73;65.07
76897;SHT30;65856;52.178;21.176;2024-03-17T12:04:53;7.66;64.29
76897;SHT30;65856;52.178;21.176;2024-03-17T12:07:22;7.59;64.46
76897;SHT30;65856;52.178;21.176;2024-03-17T12:09:49;7.54;64.45
76897;SHT30;65856;52.178;21.176;2024-03-17T12:12:18;7.45;64.67
76897;SHT30;65856;52.178;21.176;2024-03-17T12:14:45;7.37;64.12
76897;SHT30;65856;52.178;21.176;2024-03-17T12:17:14;7.32;63.87
76897;SHT30;65856;52.178;21.176;2024-03-17T12:19:45;7.30;63.68
76897;SHT30;65856;52.178;21.176;2024-03-17T12:22:19;7.29;63.48
76897;SHT30;65856;52.178;21.176;2024-03-17T12:24:49;7.30;63.35
76897;SHT30;65856;52.178;21.176;2024-03-17T12:27:22;7.30;63.29
76897;SHT30;65856;52.178;21.176;2024-03-17T12:29:50;7.28;62.69
76897;SHT30;65856;52.178;21.176;2024-03-17T12:32:17;7.25;62.78
76897;SHT30;65856;52.178;21.176;2024-03-17T12:34:47;7.24;62.81
76897;SHT30;65856;52.178;21.176;2024-03-17T12:37:22;7.23;62.70
76897;SHT30;65856;52.178;21.176;2024-03-17T12:40:00;7.20;62.58
76897;SHT30;65856;52.178;21.176;2024-03-17T12:42:26;7.22;62.78
76897;SHT30;65856;52.178;21.176;2024-03-17T12:44:53;7.26;62.92
76897;SHT30;65856;52.178;21.176;2024-03-17T12:47:21;7.36;63.10
76897;SHT30;65856;52.178;21.176;2024-03-17T12:49:52;7.50;62.93
76897;SHT30;65856;52.178;21.176;2024-03-17T12:52:27;7.60;62.69
76897;SHT30;65856;52.178;21.176;2024-03-17T12:55:01;7.68;62.15
76897;SHT30;65856;52.178;21.176;2024-03-17T12:57:50;7.76;62.09
76897;SHT30;65856;52.178;21.176;2024-03-17T13:00:35;7.78;61.99
76897;SHT30;65856;52.178;21.176;2024-03-17T13:05:31;7.82;63.14
76897;SHT30;65856;52.178;21.176;2024-03-17T13:08:02;7.83;63.09
76897;SHT30;65856;52.178;21.176;2024-03-17T13:10:29;7.81;62.82
76897;SHT30;65856;52.178;21.176;2024-03-17T13:13:02;7.78;62.55
76897;SHT30;65856;52.178;21.176;2024-03-17T13:15:33;7.76;62.71
76897;SHT30;65856;52.178;21.176;2024-03-17T13:18:02;7.78;62.94
76897;SHT30;65856;52.178;21.176;2024-03-17T13:20:29;7.82;63.17
76897;SHT30;65856;52.178;21.176;2024-03-17T13:22:56;7.89;63.30
76897;SHT30;65856;52.178;21.176;2024-03-17T13:25:26;7.95;63.39
76897;SHT30;65856;52.178;21.176;2024-03-17T13:28:03;7.94;63.11
76897;SHT30;65856;52.178;21.176;2024-03-17T13:30:29;7.96;63.02
76897;SHT30;65856;52.178;21.176;2024-03-17T13:32:56;8.05;63.05
76897;SHT30;65856;52.178;21.176;2024-03-17T13:35:28;8.10;62.28
76897;SHT30;65856;52.178;21.176;2024-03-17T13:37:55;8.11;61.97
76897;SHT30;65856;52.178;21.176;2024-03-17T13:40:26;8.07;61.47
76897;SHT30;65856;52.178;21.176;2024-03-17T13:42:52;8.04;61.36
76897;SHT30;65856;52.178;21.176;2024-03-17T13:45:19;8.00;60.76
76897;SHT30;65856;52.178;21.176;2024-03-17T13:47:50;7.87;60.83
76897;SHT30;65856;52.178;21.176;2024-03-17T13:50:20;7.79;61.21
76897;SHT30;65856;52.178;21.176;2024-03-17T13:52:45;7.70;61.54
76897;SHT30;65856;52.178;21.176;2024-03-17T13:55:17;7.65;62.86
76897;SHT30;65856;52.178;21.176;2024-03-17T13:57:51;7.65;64.15
76897;SHT30;65856;52.178;21.176;2024-03-17T14:00:19;7.62;65.41
76897;SHT30;65856;52.178;21.176;2024-03-17T14:02:50;7.49;66.07
76897;SHT30;65856;52.178;21.176;2024-03-17T14:05:18;7.39;66.49
76897;SHT30;65856;52.178;21.176;2024-03-17T14:07:47;7.32;67.59
76897;SHT30;65856;52.178;21.176;2024-03-17T14:10:14;7.22;68.19
76897;SHT30;65856;52.178;21.176;2024-03-17T14:12:42;7.13;68.59
76897;SHT30;65856;52.178;21.176;2024-03-17T14:15:08;7.08;69.11
76897;SHT30;65856;52.178;21.176;2024-03-17T14:17:39;7.08;69.58
76897;SHT30;65856;52.178;21.176;2024-03-17T14:20:10;7.05;69.76
76897;SHT30;65856;52.178;21.176;2024-03-17T14:22:37;7.00;70.02
76897;SHT30;65856;52.178;21.176;2024-03-17T14:25:06;6.89;69.68
76897;SHT30;65856;52.178;21.176;2024-03-17T14:27:36;6.83;69.84
76897;SHT30;65856;52.178;21.176;2024-03-17T14:30:02;6.75;70.13
76897;SHT30;65856;52.178;21.176;2024-03-17T14:32:29;6.59;70.46
76897;SHT30;65856;52.178;21.176;2024-03-17T14:34:56;6.47;71.05
76897;SHT30;65856;52.178;21.176;2024-03-17T14:37:21;6.39;71.50
76897;SHT30;65856;52.178;21.176;2024-03-17T14:39:52;6.32;71.48
76897;SHT30;65856;52.178;21.176;2024-03-17T14:42:18;6.26;71.96
76897;SHT30;65856;52.178;21.176;2024-03-17T14:44:45;6.19;72.04
76897;SHT30;65856;52.178;21.176;2024-03-17T14:47:12;6.13;72.20
76897;SHT30;65856;52.178;21.176;2024-03-17T14:49:38;6.11;72.47
76897;SHT30;65856;52.178;21.176;2024-03-17T14:52:03;6.06;72.81
76897;SHT30;65856;52.178;21.176;2024-03-17T14:54:30;6.02;73.03
76897;SHT30;65856;52.178;21.176;2024-03-17T14:56:56;6.01;73.23
76897;SHT30;65856;52.178;21.176;2024-03-17T14:59:22;6.00;73.31
76897;SHT30;65856;52.178;21.176;2024-03-17T15:01:47;6.01;73.42
76897;SHT30;65856;52.178;21.176;2024-03-17T15:04:13;5.95;73.54
76897;SHT30;65856;52.178;21.176;2024-03-17T15:06:42;5.93;73.69
76897;SHT30;65856;52.178;21.176;2024-03-17T15:09:08;5.94;73.87
76897;SHT30;65856;52.178;21.176;2024-03-17T15:11:34;5.93;74.03
76897;SHT30;65856;52.178;21.176;2024-03-17T15:14:00;5.91;74.29
76897;SHT30;65856;52.178;21.176;2024-03-17T15:16:26;5.87;74.28
76897;SHT30;65856;52.178;21.176;2024-03-17T15:18:51;5.86;74.52
76897;SHT30;65856;52.178;21.176;2024-03-17T15:21:17;5.87;74.68
76897;SHT30;65856;52.178;21.176;2024-03-17T15:23:42;5.87;74.90
76897;SHT30;65856;52.178;21.176;2024-03-17T15:26:07;5.83;74.66
76897;SHT30;65856;52.178;21.176;2024-03-17T15:28:36;5.75;74.61
76897;SHT30;65856;52.178;21.176;2024-03-17T15:31:05;5.71;74.59
76897;SHT30;65856;52.178;21.176;2024-03-17T15:33:34;5.68;74.60
76897;SHT30;65856;52.178;21.176;2024-03-17T15:36:05;5.63;74.58
76897;SHT30;65856;52.178;21.176;2024-03-17T15:38:33;5.54;74.76
76897;SHT30;65856;52.178;21.176;2024-03-17T15:41:03;5.51;74.93
76897;SHT30;65856;52.178;21.176;2024-03-17T15:43:34;5.53;75.01
76897;SHT30;65856;52.178;21.176;2024-03-17T15:46:00;5.53;75.11
76897;SHT30;65856;52.178;21.176;2024-03-17T15:48:26;5.50;75.28
76897;SHT30;65856;52.178;21.176;2024-03-17T15:50:54;5.44;75.30
76897;SHT30;65856;52.178;21.176;2024-03-17T15:53:24;5.40;75.16
76897;SHT30;65856;52.178;21.176;2024-03-17T15:55:58;5.32;74.90
76897;SHT30;65856;52.178;21.176;2024-03-17T15:58:26;5.24;74.88
76897;SHT30;65856;52.178;21.176;2024-03-17T16:00:54;5.18;75.06
76897;SHT30;65856;52.178;21.176;2024-03-17T16:03:20;5.10;75.26
76897;SHT30;65856;52.178;21.176;2024-03-17T16:05:50;5.06;75.50